Time;durP1;ratioP1;P1;durP2;ratioP2;P2;SDS_P1;SDS_P2;PMS_P1;PMS_P2;Temp;Humidity;BMP_temperature;BMP_pressure;BME280_temperature;BME280_humidity;BME280_pressure;Samples;Min_cycle;Max_cycle;Signal;HPM_P1;HPM_P2
2022/10/29 00:02:20;;;;;;;;;;;14.00;99.90;;;;;;5034593;28;20354;-77
2022/10/29 00:04:46;;;;;;;;;;;14.00;99.90;;;;;;5034076;28;19909;-78
2022/10/29 00:07:11;;;;;;;;;;;13.90;99.90;;;;;;5049429;28;20051;-76
2022/10/29 00:09:37;;;;;;;;;;;13.90;99.90;;;;;;5034241;28;20500;-77
2022/10/29 00:12:03;;;;;;;;;;;13.90;99.90;;;;;;5033623;28;20313;-76
2022/10/29 00:14:28;;;;;;;;;;;13.80;99.90;;;;;;5034484;28;19964;-77
2022/10/29 00:16:55;;;;;;;;;;;13.80;99.90;;;;;;5033666;28;20263;-76
2022/10/29 00:19:21;;;;;;;;;;;13.70;99.90;;;;;;5034185;28;19977;-77
2022/10/29 00:21:48;;;;;;;;;;;13.70;99.90;;;;;;5034229;28;19913;-76
2022/10/29 00:24:14;;;;;;;;;;;13.80;99.90;;;;;;5033854;28;19909;-77
2022/10/29 00:26:39;;;;;;;;;;;13.70;99.90;;;;;;5034137;28;20005;-78
2022/10/29 00:29:05;;;;;;;;;;;13.70;99.90;;;;;;5045402;28;19920;-76
2022/10/29 00:31:30;;;;;;;;;;;13.70;99.90;;;;;;5053823;28;19917;-77
2022/10/29 00:33:56;;;;;;;;;;;13.60;99.90;;;;;;5052817;28;19909;-76
2022/10/29 00:36:24;;;;;;;;;;;13.60;99.90;;;;;;5052563;28;19909;-77
2022/10/29 00:38:50;;;;;;;;;;;13.50;99.90;;;;;;5053618;28;19909;-77
2022/10/29 00:41:20;;;;;;;;;;;13.50;99.90;;;;;;5053508;28;20050;-76
2022/10/29 00:43:47;;;;;;;;;;;13.50;99.90;;;;;;5053721;28;19915;-76
2022/10/29 00:46:15;;;;;;;;;;;13.40;99.90;;;;;;5035732;28;20019;-76
2022/10/29 00:48:46;;;;;;;;;;;13.40;99.90;;;;;;5033676;28;19913;-76
2022/10/29 00:51:12;;;;;;;;;;;13.40;99.90;;;;;;5033298;28;19909;-77
2022/10/29 00:53:39;;;;;;;;;;;13.40;99.90;;;;;;5015860;28;20008;-77
2022/10/29 00:56:05;;;;;;;;;;;13.40;99.90;;;;;;5032837;28;19910;-77
2022/10/29 00:58:31;;;;;;;;;;;13.30;99.90;;;;;;5033504;28;19913;-77
2022/10/29 01:00:58;;;;;;;;;;;13.30;99.90;;;;;;5015818;28;20306;-77
2022/10/29 01:03:23;;;;;;;;;;;13.30;99.90;;;;;;5039331;28;19913;-79
2022/10/29 01:05:51;;;;;;;;;;;13.20;99.90;;;;;;5036852;28;19909;-77
2022/10/29 01:08:16;;;;;;;;;;;13.20;99.90;;;;;;5015275;28;19913;-77
2022/10/29 01:10:45;;;;;;;;;;;13.10;99.90;;;;;;5033390;28;19920;-77
2022/10/29 01:13:18;;;;;;;;;;;13.10;99.90;;;;;;5032893;28;19932;-77
2022/10/29 01:15:55;;;;;;;;;;;13.00;99.90;;;;;;5033068;28;19913;-77
2022/10/29 01:18:27;;;;;;;;;;;13.00;99.90;;;;;;5033002;28;19967;-78
2022/10/29 01:21:08;;;;;;;;;;;13.00;99.90;;;;;;5014875;28;19988;-77
2022/10/29 01:23:34;;;;;;;;;;;13.00;99.90;;;;;;5033012;28;19932;-78
2022/10/29 01:26:33;;;;;;;;;;;13.00;99.90;;;;;;5032081;28;19909;-78
2022/10/29 01:29:13;;;;;;;;;;;13.00;99.90;;;;;;5032525;28;19913;-77
2022/10/29 01:31:44;;;;;;;;;;;13.10;99.90;;;;;;5031941;28;19913;-78
2022/10/29 01:34:36;;;;;;;;;;;13.10;99.90;;;;;;5031830;28;20000;-75
2022/10/29 01:37:08;;;;;;;;;;;13.10;99.90;;;;;;5032150;28;20282;-77
2022/10/29 01:39:37;;;;;;;;;;;13.10;99.90;;;;;;5032947;28;19916;-77
2022/10/29 01:42:09;;;;;;;;;;;13.20;99.90;;;;;;5032404;28;19910;-76
2022/10/29 01:44:44;;;;;;;;;;;13.20;99.90;;;;;;5032845;28;19963;-76
2022/10/29 01:47:12;;;;;;;;;;;13.20;99.90;;;;;;5032662;28;19992;-77
2022/10/29 01:49:39;;;;;;;;;;;13.20;99.90;;;;;;5032780;28;19913;-77
2022/10/29 01:52:06;;;;;;;;;;;13.20;99.90;;;;;;5031759;28;19917;-77
2022/10/29 01:54:31;;;;;;;;;;;13.20;99.90;;;;;;5032928;28;19948;-77
2022/10/29 01:56:58;;;;;;;;;;;13.30;99.90;;;;;;5032046;28;19975;-77
2022/10/29 01:59:28;;;;;;;;;;;13.30;99.90;;;;;;5032838;28;20294;-77
2022/10/29 02:01:54;;;;;;;;;;;13.30;99.90;;;;;;5032901;28;20051;-77
2022/10/29 02:04:35;;;;;;;;;;;13.40;99.90;;;;;;5032206;28;19996;-78
2022/10/29 02:07:23;;;;;;;;;;;13.40;99.90;;;;;;5014563;28;19940;-77
2022/10/29 02:09:52;;;;;;;;;;;13.50;99.90;;;;;;5021175;28;19917;-77
2022/10/29 02:12:24;;;;;;;;;;;13.60;99.90;;;;;;5032092;28;19910;-78
2022/10/29 02:14:56;;;;;;;;;;;13.60;99.90;;;;;;5032647;28;19909;-78
2022/10/29 02:17:22;;;;;;;;;;;13.70;99.90;;;;;;5014499;28;19909;-78
2022/10/29 02:19:47;;;;;;;;;;;13.70;99.90;;;;;;5032571;28;19909;-77
2022/10/29 02:22:13;;;;;;;;;;;13.80;99.90;;;;;;5031707;28;20333;-77
2022/10/29 02:24:38;;;;;;;;;;;13.80;99.90;;;;;;5032494;28;20366;-78
2022/10/29 02:27:04;;;;;;;;;;;13.80;99.90;;;;;;5031918;28;19913;-77
2022/10/29 02:29:30;;;;;;;;;;;13.80;99.90;;;;;;5032322;28;20392;-77
2022/10/29 02:31:55;;;;;;;;;;;13.80;99.90;;;;;;5032709;28;19917;-77
2022/10/29 02:34:21;;;;;;;;;;;13.80;99.90;;;;;;5014031;28;20301;-77
2022/10/29 02:36:46;;;;;;;;;;;13.90;99.90;;;;;;5032496;28;20004;-77
2022/10/29 02:39:12;;;;;;;;;;;13.90;99.90;;;;;;5031864;28;19909;-77
2022/10/29 02:41:37;;;;;;;;;;;13.90;99.90;;;;;;5032185;28;19949;-77
2022/10/29 02:44:03;;;;;;;;;;;13.90;99.90;;;;;;5031757;28;19916;-76
2022/10/29 02:46:29;;;;;;;;;;;14.00;99.90;;;;;;5031939;28;20402;-78
2022/10/29 02:48:54;;;;;;;;;;;14.00;99.90;;;;;;5032296;28;20362;-78
2022/10/29 02:51:20;;;;;;;;;;;14.00;99.90;;;;;;5032673;28;19920;-78
2022/10/29 02:53:45;;;;;;;;;;;14.00;99.90;;;;;;5034144;28;20365;-77
2022/10/29 02:56:11;;;;;;;;;;;14.00;99.90;;;;;;5035122;28;19909;-77
2022/10/29 02:58:37;;;;;;;;;;;14.00;99.90;;;;;;5036080;28;19952;-78
2022/10/29 03:01:03;;;;;;;;;;;14.00;99.90;;;;;;5035131;28;19909;-78
2022/10/29 03:03:28;;;;;;;;;;;14.00;99.90;;;;;;5035538;28;19979;-77
2022/10/29 03:05:54;;;;;;;;;;;14.00;99.90;;;;;;5035625;28;19983;-77
2022/10/29 03:08:19;;;;;;;;;;;14.00;99.90;;;;;;5034948;28;19920;-78
2022/10/29 03:10:45;;;;;;;;;;;14.00;99.90;;;;;;5035482;28;19913;-78
2022/10/29 03:13:10;;;;;;;;;;;13.90;99.90;;;;;;5034801;28;19913;-78
2022/10/29 03:15:36;;;;;;;;;;;13.90;99.90;;;;;;5035337;28;20369;-77
2022/10/29 03:18:02;;;;;;;;;;;13.90;99.90;;;;;;5034776;28;20374;-77
2022/10/29 03:20:28;;;;;;;;;;;13.80;99.90;;;;;;5017680;28;19941;-77
2022/10/29 03:22:53;;;;;;;;;;;13.80;99.90;;;;;;5034945;28;20089;-78
2022/10/29 03:25:19;;;;;;;;;;;13.80;99.90;;;;;;5033529;28;19909;-78
2022/10/29 03:27:45;;;;;;;;;;;13.80;99.90;;;;;;5034907;28;19916;-78
2022/10/29 03:30:12;;;;;;;;;;;13.80;99.90;;;;;;5034446;28;19974;-77
2022/10/29 03:32:41;;;;;;;;;;;13.80;99.90;;;;;;5034816;28;19913;-78
2022/10/29 03:35:07;;;;;;;;;;;13.80;99.90;;;;;;5034668;28;19967;-78
2022/10/29 03:37:33;;;;;;;;;;;13.70;99.90;;;;;;5035047;28;19909;-78
2022/10/29 03:39:58;;;;;;;;;;;13.80;99.90;;;;;;5035341;28;19915;-78
2022/10/29 03:42:24;;;;;;;;;;;13.80;99.90;;;;;;5034123;28;19917;-77
2022/10/29 03:44:49;;;;;;;;;;;13.80;99.90;;;;;;5034719;28;19913;-78
2022/10/29 03:47:15;;;;;;;;;;;13.80;99.90;;;;;;5034334;28;19913;-78
2022/10/29 03:49:40;;;;;;;;;;;13.80;99.90;;;;;;5034498;28;19983;-78
2022/10/29 03:52:06;;;;;;;;;;;13.80;99.90;;;;;;5033862;28;19913;-77
2022/10/29 03:54:31;;;;;;;;;;;13.80;99.90;;;;;;5034552;28;19913;-78
2022/10/29 03:56:57;;;;;;;;;;;13.80;99.90;;;;;;5034663;28;19952;-78
2022/10/29 03:59:23;;;;;;;;;;;13.80;99.90;;;;;;5033869;28;19967;-77
2022/10/29 04:01:48;;;;;;;;;;;13.80;99.90;;;;;;5034226;28;19909;-78
2022/10/29 04:04:14;;;;;;;;;;;13.80;99.90;;;;;;5031679;28;20008;-77
2022/10/29 04:06:39;;;;;;;;;;;13.80;99.90;;;;;;5033768;28;19983;-77
2022/10/29 04:09:05;;;;;;;;;;;13.80;99.90;;;;;;5032497;28;19913;-77
2022/10/29 04:11:30;;;;;;;;;;;13.70;99.90;;;;;;5033933;28;19913;-77
2022/10/29 04:13:56;;;;;;;;;;;13.80;99.90;;;;;;5034334;28;19916;-77
2022/10/29 04:16:21;;;;;;;;;;;13.70;99.90;;;;;;5033925;28;20000;-77
2022/10/29 04:18:47;;;;;;;;;;;13.70;99.90;;;;;;5035514;28;20254;-77
2022/10/29 04:21:13;;;;;;;;;;;13.70;99.90;;;;;;5033389;28;20374;-77
2022/10/29 04:23:39;;;;;;;;;;;13.80;99.90;;;;;;5033937;28;19909;-78
2022/10/29 04:26:04;;;;;;;;;;;13.80;99.90;;;;;;5033844;28;19913;-76
2022/10/29 04:28:30;;;;;;;;;;;13.80;99.90;;;;;;5033353;28;19922;-77
2022/10/29 04:30:55;;;;;;;;;;;13.80;99.90;;;;;;5034088;28;19921;-77
2022/10/29 04:33:21;;;;;;;;;;;13.80;99.90;;;;;;5033312;28;20306;-77
2022/10/29 04:35:53;;;;;;;;;;;13.80;99.90;;;;;;5033723;28;19921;-78
2022/10/29 04:38:19;;;;;;;;;;;13.80;99.90;;;;;;5033303;28;20021;-78
2022/10/29 04:40:44;;;;;;;;;;;13.80;99.90;;;;;;5033568;28;19949;-78
2022/10/29 04:43:10;;;;;;;;;;;13.80;99.90;;;;;;5015549;28;19910;-78
2022/10/29 04:45:35;;;;;;;;;;;13.80;99.90;;;;;;5033810;28;20278;-78
2022/10/29 04:48:02;;;;;;;;;;;13.90;99.90;;;;;;5033583;28;19917;-79
2022/10/29 04:50:28;;;;;;;;;;;13.90;99.90;;;;;;5033374;28;20001;-78
2022/10/29 04:53:04;;;;;;;;;;;13.90;99.90;;;;;;5033422;28;20352;-78
2022/10/29 04:55:29;;;;;;;;;;;13.90;99.90;;;;;;5032822;28;20020;-78
2022/10/29 04:57:55;;;;;;;;;;;13.90;99.90;;;;;;5033207;28;19998;-78
2022/10/29 05:00:21;;;;;;;;;;;13.80;99.90;;;;;;5031612;28;19909;-78
2022/10/29 05:02:47;;;;;;;;;;;13.90;99.90;;;;;;5052802;28;19919;-78
2022/10/29 05:05:13;;;;;;;;;;;13.90;99.90;;;;;;5052660;28;20007;-78
2022/10/29 05:07:39;;;;;;;;;;;13.80;99.90;;;;;;5053063;28;20054;-78
2022/10/29 05:10:04;;;;;;;;;;;13.80;99.90;;;;;;5053356;28;19952;-78
2022/10/29 05:12:30;;;;;;;;;;;13.80;99.90;;;;;;5054694;28;19913;-78
2022/10/29 05:14:55;;;;;;;;;;;13.80;99.90;;;;;;5051539;28;19909;-78
2022/10/29 05:17:21;;;;;;;;;;;13.80;99.90;;;;;;5034624;28;19908;-78
2022/10/29 05:19:46;;;;;;;;;;;13.70;99.90;;;;;;5052986;28;19909;-80
2022/10/29 05:22:12;;;;;;;;;;;13.70;99.90;;;;;;5052806;28;19909;-81
2022/10/29 05:24:38;;;;;;;;;;;13.80;99.90;;;;;;5053001;28;20346;-84
2022/10/29 05:27:04;;;;;;;;;;;13.70;99.90;;;;;;5034842;28;19952;-85
2022/10/29 05:29:30;;;;;;;;;;;13.70;99.90;;;;;;5052251;28;20067;-85
2022/10/29 05:31:55;;;;;;;;;;;13.60;99.90;;;;;;5052704;28;19956;-84
2022/10/29 05:34:21;;;;;;;;;;;13.60;99.90;;;;;;5034194;28;20313;-86
2022/10/29 05:36:46;;;;;;;;;;;13.60;99.90;;;;;;5052609;28;19943;-83
2022/10/29 05:39:12;;;;;;;;;;;13.50;99.90;;;;;;5052785;28;19934;-82
2022/10/29 05:41:37;;;;;;;;;;;13.60;99.90;;;;;;5053499;28;19919;-85
2022/10/29 05:44:03;;;;;;;;;;;13.50;99.90;;;;;;5052752;28;19916;-85
2022/10/29 05:46:29;;;;;;;;;;;13.50;99.90;;;;;;5050725;28;20259;-84
2022/10/29 05:48:54;;;;;;;;;;;13.50;99.90;;;;;;5034938;28;19921;-84
2022/10/29 05:51:20;;;;;;;;;;;13.50;99.90;;;;;;5052582;28;19920;-82
2022/10/29 05:53:46;;;;;;;;;;;13.50;99.90;;;;;;5034892;28;20317;-80
2022/10/29 05:56:11;;;;;;;;;;;13.50;99.90;;;;;;5051952;28;19909;-82
2022/10/29 05:58:37;;;;;;;;;;;13.50;99.90;;;;;;5052330;28;19962;-81
2022/10/29 06:01:06;;;;;;;;;;;13.40;99.90;;;;;;5052615;28;19909;-81
2022/10/29 06:03:32;;;;;;;;;;;13.40;99.90;;;;;;5052057;28;19915;-82
2022/10/29 06:05:58;;;;;;;;;;;13.30;99.90;;;;;;5052846;28;19909;-88
2022/10/29 06:08:23;;;;;;;;;;;13.30;99.90;;;;;;5052146;28;19913;-87
2022/10/29 06:10:49;;;;;;;;;;;13.20;99.90;;;;;;5052937;28;19978;-87
2022/10/29 06:13:16;;;;;;;;;;;13.20;99.90;;;;;;5051927;28;19913;-84
2022/10/29 06:15:42;;;;;;;;;;;13.20;99.90;;;;;;5052653;28;19923;-83
2022/10/29 06:18:08;;;;;;;;;;;13.10;99.90;;;;;;5035185;28;19909;-87
2022/10/29 06:20:34;;;;;;;;;;;13.00;99.90;;;;;;5051981;28;20146;-83
2022/10/29 06:22:59;;;;;;;;;;;13.00;99.90;;;;;;5052620;28;19948;-85
2022/10/29 06:25:25;;;;;;;;;;;12.90;99.90;;;;;;5051974;28;19909;-87
2022/10/29 06:28:05;;;;;;;;;;;13.00;99.90;;;;;;5037867;28;19908;-86
2022/10/29 06:30:31;;;;;;;;;;;13.00;99.90;;;;;;5037589;28;19919;-81
2022/10/29 06:32:56;;;;;;;;;;;13.00;99.90;;;;;;5055932;28;19908;-82
2022/10/29 06:35:22;;;;;;;;;;;13.10;99.90;;;;;;5055077;28;20351;-79
2022/10/29 06:37:47;;;;;;;;;;;13.10;99.90;;;;;;5056360;28;19932;-77
2022/10/29 06:40:13;;;;;;;;;;;13.20;99.90;;;;;;5055833;28;19909;-76
2022/10/29 06:42:39;;;;;;;;;;;13.20;99.90;;;;;;5055233;28;20350;-76
2022/10/29 06:45:04;;;;;;;;;;;13.20;99.90;;;;;;5055896;28;19919;-76
2022/10/29 06:47:30;;;;;;;;;;;13.20;99.90;;;;;;5055342;28;19960;-74
2022/10/29 06:49:56;;;;;;;;;;;13.20;99.90;;;;;;5055749;28;19935;-74
2022/10/29 06:52:21;;;;;;;;;;;13.20;99.90;;;;;;5055508;28;20282;-75
2022/10/29 06:54:47;;;;;;;;;;;13.20;99.90;;;;;;5055692;28;19908;-74
2022/10/29 06:57:12;;;;;;;;;;;13.30;99.90;;;;;;5055971;28;20288;-74
2022/10/29 06:59:38;;;;;;;;;;;13.20;99.90;;;;;;5037232;28;19912;-74
2022/10/29 07:02:03;;;;;;;;;;;13.30;99.90;;;;;;5055679;28;19924;-75
2022/10/29 07:04:29;;;;;;;;;;;13.20;99.90;;;;;;5054745;28;19974;-73
2022/10/29 07:06:54;;;;;;;;;;;13.20;99.90;;;;;;5055645;28;19935;-74
2022/10/29 07:09:20;;;;;;;;;;;13.20;99.90;;;;;;5054651;28;19919;-75
2022/10/29 07:11:46;;;;;;;;;;;13.20;99.90;;;;;;5054092;28;19916;-74
2022/10/29 07:14:12;;;;;;;;;;;13.10;99.90;;;;;;5055327;28;19909;-74
2022/10/29 07:16:37;;;;;;;;;;;13.10;99.90;;;;;;5054523;28;20012;-75
2022/10/29 07:19:03;;;;;;;;;;;13.10;99.90;;;;;;5054812;28;19909;-75
2022/10/29 07:21:29;;;;;;;;;;;13.10;99.90;;;;;;5054597;28;19959;-75
2022/10/29 07:23:56;;;;;;;;;;;13.00;99.90;;;;;;5054990;28;19924;-76
2022/10/29 07:26:21;;;;;;;;;;;12.90;99.90;;;;;;5054071;28;20410;-75
2022/10/29 07:28:47;;;;;;;;;;;12.70;99.90;;;;;;5036790;28;19953;-75
2022/10/29 07:31:12;;;;;;;;;;;12.70;99.90;;;;;;5054651;28;20282;-76
2022/10/29 07:33:38;;;;;;;;;;;12.70;99.90;;;;;;5054078;28;19983;-76
2022/10/29 07:36:03;;;;;;;;;;;12.70;99.90;;;;;;5054276;28;19928;-75
2022/10/29 07:38:29;;;;;;;;;;;12.80;99.90;;;;;;5053965;28;19909;-75
2022/10/29 07:40:55;;;;;;;;;;;12.80;99.90;;;;;;5054764;28;19913;-75
2022/10/29 07:43:21;;;;;;;;;;;12.80;99.90;;;;;;5054036;28;19916;-75
2022/10/29 07:45:48;;;;;;;;;;;12.70;99.90;;;;;;5053736;28;19993;-76
2022/10/29 07:48:14;;;;;;;;;;;12.70;99.90;;;;;;5054809;28;19984;-76
2022/10/29 07:50:39;;;;;;;;;;;12.70;99.90;;;;;;5054010;28;19951;-76
2022/10/29 07:53:06;;;;;;;;;;;12.80;99.90;;;;;;5054087;28;19912;-75
2022/10/29 07:55:32;;;;;;;;;;;12.80;99.90;;;;;;5053787;28;19909;-75
2022/10/29 07:58:00;;;;;;;;;;;12.80;99.90;;;;;;5036461;28;19915;-75
2022/10/29 08:00:26;;;;;;;;;;;12.70;99.90;;;;;;5053725;28;19910;-74
2022/10/29 08:02:55;;;;;;;;;;;12.60;99.90;;;;;;5053881;28;19999;-76
2022/10/29 08:05:21;;;;;;;;;;;12.60;99.90;;;;;;5054247;28;20007;-75
2022/10/29 08:07:46;;;;;;;;;;;12.60;99.90;;;;;;5053839;28;19935;-78
2022/10/29 08:10:12;;;;;;;;;;;12.60;99.90;;;;;;5053164;28;19913;-76
2022/10/29 08:12:38;;;;;;;;;;;12.60;99.90;;;;;;5031484;28;19963;-77
2022/10/29 08:15:04;;;;;;;;;;;12.60;99.90;;;;;;5033797;28;20012;-76
2022/10/29 08:17:30;;;;;;;;;;;12.60;99.90;;;;;;5033404;28;19980;-75
2022/10/29 08:19:56;;;;;;;;;;;12.60;99.90;;;;;;5033846;28;19968;-76
2022/10/29 08:22:22;;;;;;;;;;;12.50;99.90;;;;;;5033409;28;19932;-76
2022/10/29 08:24:47;;;;;;;;;;;12.50;99.90;;;;;;5033742;28;20008;-74
2022/10/29 08:27:13;;;;;;;;;;;12.40;99.90;;;;;;5033846;28;19916;-75
2022/10/29 08:29:39;;;;;;;;;;;12.40;99.90;;;;;;5033100;28;20018;-75
2022/10/29 08:32:04;;;;;;;;;;;12.40;99.90;;;;;;5033881;28;19924;-74
2022/10/29 08:34:30;;;;;;;;;;;12.40;99.90;;;;;;5015009;28;19910;-74
2022/10/29 08:36:55;;;;;;;;;;;12.40;99.90;;;;;;5033074;28;20008;-73
2022/10/29 08:39:21;;;;;;;;;;;12.40;99.90;;;;;;5033427;28;19909;-74
2022/10/29 08:41:52;;;;;;;;;;;12.40;99.90;;;;;;5032873;28;20377;-75
2022/10/29 08:44:32;;;;;;;;;;;12.40;99.90;;;;;;5033427;28;19916;-74
2022/10/29 08:46:57;;;;;;;;;;;12.40;99.90;;;;;;5015655;28;19909;-74
2022/10/29 08:49:46;;;;;;;;;;;12.30;99.90;;;;;;5032540;28;19959;-76
2022/10/29 08:52:18;;;;;;;;;;;12.40;99.90;;;;;;5025432;28;20381;-74
2022/10/29 08:54:45;;;;;;;;;;;12.30;99.90;;;;;;5032797;28;20557;-77
2022/10/29 08:57:14;;;;;;;;;;;12.40;99.90;;;;;;5033312;28;20405;-74
2022/10/29 08:59:44;;;;;;;;;;;12.40;99.90;;;;;;5032666;28;19967;-76
2022/10/29 09:02:17;;;;;;;;;;;12.40;99.90;;;;;;5015954;28;19913;-74
2022/10/29 09:04:42;;;;;;;;;;;12.30;99.90;;;;;;5032453;28;20325;-75
2022/10/29 09:07:27;;;;;;;;;;;12.30;99.90;;;;;;5033213;28;19909;-75
2022/10/29 09:10:04;;;;;;;;;;;12.20;99.90;;;;;;5033045;28;19917;-76
2022/10/29 09:12:48;;;;;;;;;;;12.30;99.90;;;;;;5033306;28;20280;-75
2022/10/29 09:15:32;;;;;;;;;;;12.20;99.90;;;;;;5038544;28;19960;-75
2022/10/29 09:18:11;;;;;;;;;;;12.20;99.90;;;;;;5034175;28;19996;-75
2022/10/29 09:20:37;;;;;;;;;;;12.30;99.90;;;;;;5032524;28;19910;-75
2022/10/29 09:23:02;;;;;;;;;;;12.30;99.90;;;;;;5032770;28;19910;-77
2022/10/29 09:25:40;;;;;;;;;;;12.30;99.90;;;;;;5032357;28;19916;-78
2022/10/29 09:28:15;;;;;;;;;;;12.30;99.90;;;;;;5033361;28;19915;-78
2022/10/29 09:30:51;;;;;;;;;;;12.40;99.90;;;;;;5032436;28;20016;-76
2022/10/29 09:33:18;;;;;;;;;;;12.40;99.90;;;;;;5033016;28;19995;-75
2022/10/29 09:35:51;;;;;;;;;;;12.50;99.90;;;;;;5031755;28;20003;-75
2022/10/29 09:38:18;;;;;;;;;;;12.60;99.90;;;;;;5032690;28;19916;-74
2022/10/29 09:40:44;;;;;;;;;;;12.70;99.90;;;;;;5032173;28;19914;-75
2022/10/29 09:43:18;;;;;;;;;;;12.70;99.90;;;;;;5032551;28;20267;-73
2022/10/29 09:45:44;;;;;;;;;;;12.80;99.90;;;;;;5031788;28;19909;-75
2022/10/29 09:48:26;;;;;;;;;;;12.80;99.90;;;;;;5032390;28;20274;-74
2022/10/29 09:50:56;;;;;;;;;;;12.90;99.90;;;;;;5031973;28;19920;-74
2022/10/29 09:53:22;;;;;;;;;;;12.90;99.90;;;;;;5032565;28;19935;-75
2022/10/29 09:55:52;;;;;;;;;;;13.00;99.90;;;;;;5031773;28;20100;-73
2022/10/29 09:58:22;;;;;;;;;;;13.00;99.90;;;;;;5015479;28;19956;-74
2022/10/29 10:00:48;;;;;;;;;;;13.00;99.90;;;;;;5033740;28;19999;-74
2022/10/29 10:03:27;;;;;;;;;;;13.00;99.90;;;;;;5036545;28;19959;-75
2022/10/29 10:05:57;;;;;;;;;;;13.10;99.90;;;;;;5036088;28;20382;-74
2022/10/29 10:08:23;;;;;;;;;;;13.10;99.90;;;;;;5035971;28;19917;-73
2022/10/29 10:10:54;;;;;;;;;;;13.10;99.90;;;;;;5036082;28;19994;-74
2022/10/29 10:13:48;;;;;;;;;;;13.10;99.90;;;;;;5036059;28;19999;-74
2022/10/29 10:16:22;;;;;;;;;;;13.20;99.90;;;;;;5036037;28;19910;-74
2022/10/29 10:18:47;;;;;;;;;;;13.30;99.90;;;;;;5017758;28;19999;-74
2022/10/29 10:21:22;;;;;;;;;;;13.40;99.90;;;;;;5035935;28;20442;-74
2022/10/29 10:23:51;;;;;;;;;;;13.40;99.90;;;;;;5035289;28;20389;-74
2022/10/29 10:26:38;;;;;;;;;;;13.50;99.90;;;;;;5035834;28;20393;-75
2022/10/29 10:29:11;;;;;;;;;;;13.60;99.90;;;;;;5035878;28;20007;-73
2022/10/29 10:31:37;;;;;;;;;;;13.70;99.90;;;;;;5034877;28;20314;-73
2022/10/29 10:34:21;;;;;;;;;;;13.90;99.90;;;;;;5035741;28;19909;-74
2022/10/29 10:36:49;;;;;;;;;;;14.00;99.90;;;;;;5034952;28;20100;-74
2022/10/29 10:39:18;;;;;;;;;;;14.10;99.90;;;;;;5017495;28;20309;-75
2022/10/29 10:41:44;;;;;;;;;;;14.20;99.90;;;;;;5034550;28;19948;-74
2022/10/29 10:44:11;;;;;;;;;;;14.20;99.90;;;;;;5034953;28;19948;-75
2022/10/29 10:46:41;;;;;;;;;;;14.40;99.90;;;;;;5034091;28;19963;-76
2022/10/29 10:49:10;;;;;;;;;;;14.40;99.90;;;;;;5034965;28;19953;-76
2022/10/29 10:51:36;;;;;;;;;;;14.50;99.90;;;;;;5034560;28;19924;-76
2022/10/29 10:54:03;;;;;;;;;;;14.50;99.90;;;;;;5034831;28;19920;-74
2022/10/29 10:56:29;;;;;;;;;;;14.60;99.90;;;;;;5035046;28;20394;-75
2022/10/29 10:58:58;;;;;;;;;;;14.60;99.90;;;;;;5033817;28;19952;-74
2022/10/29 11:01:44;;;;;;;;;;;14.70;99.90;;;;;;5034455;28;19909;-74
2022/10/29 11:04:13;;;;;;;;;;;14.70;99.90;;;;;;5034408;28;19909;-75
2022/10/29 11:06:39;;;;;;;;;;;14.90;99.90;;;;;;5034279;28;19963;-75
2022/10/29 11:09:14;;;;;;;;;;;14.90;99.90;;;;;;5034586;28;19924;-75
2022/10/29 11:11:45;;;;;;;;;;;15.10;99.90;;;;;;5015539;28;19913;-75
2022/10/29 11:14:14;;;;;;;;;;;15.10;99.90;;;;;;5034489;28;19917;-75
2022/10/29 11:16:49;;;;;;;;;;;15.20;99.90;;;;;;5033716;28;20362;-74
2022/10/29 11:19:17;;;;;;;;;;;15.30;99.90;;;;;;5034124;28;20374;-74
2022/10/29 11:21:43;;;;;;;;;;;15.40;99.90;;;;;;5033913;28;19909;-74
2022/10/29 11:24:18;;;;;;;;;;;15.40;99.90;;;;;;5034462;28;19909;-74
2022/10/29 11:26:47;;;;;;;;;;;15.50;99.90;;;;;;5033788;28;19909;-75
2022/10/29 11:29:21;;;;;;;;;;;15.50;99.90;;;;;;5033867;28;19913;-75
2022/10/29 11:32:05;;;;;;;;;;;15.50;99.90;;;;;;5033375;28;19988;-76
2022/10/29 11:34:31;;;;;;;;;;;15.60;99.90;;;;;;5033749;28;20046;-76
2022/10/29 11:37:01;;;;;;;;;;;15.60;99.90;;;;;;5033940;28;19955;-75
2022/10/29 11:39:32;;;;;;;;;;;15.70;99.90;;;;;;5034449;28;19914;-74
2022/10/29 11:41:58;;;;;;;;;;;15.70;99.90;;;;;;5033594;28;19909;-74
2022/10/29 11:44:24;;;;;;;;;;;15.80;99.90;;;;;;5034089;28;19909;-75
2022/10/29 11:46:52;;;;;;;;;;;15.80;99.90;;;;;;5033653;28;19909;-75
2022/10/29 11:49:17;;;;;;;;;;;15.90;99.90;;;;;;5033548;28;20290;-74
2022/10/29 11:51:56;;;;;;;;;;;15.90;99.90;;;;;;5015396;28;19913;-74
2022/10/29 11:54:40;;;;;;;;;;;15.90;99.90;;;;;;5033744;28;20376;-75
2022/10/29 11:57:13;;;;;;;;;;;16.00;99.90;;;;;;5033698;28;19909;-75
2022/10/29 11:59:38;;;;;;;;;;;16.00;99.90;;;;;;5033301;28;19996;-75
2022/10/29 12:02:04;;;;;;;;;;;16.10;99.90;;;;;;5034072;28;19960;-77
2022/10/29 12:04:31;;;;;;;;;;;16.10;99.90;;;;;;5016520;28;19963;-76
2022/10/29 12:07:01;;;;;;;;;;;16.10;99.90;;;;;;5015898;28;20449;-76
2022/10/29 12:09:29;;;;;;;;;;;16.20;99.90;;;;;;5033455;28;20441;-75
2022/10/29 12:12:01;;;;;;;;;;;16.20;99.90;;;;;;5032376;28;19917;-76
2022/10/29 12:14:26;;;;;;;;;;;16.20;99.90;;;;;;5033091;28;19909;-76
2022/10/29 12:17:04;;;;;;;;;;;16.30;99.90;;;;;;5032782;28;19917;-76
2022/10/29 12:19:43;;;;;;;;;;;16.40;99.90;;;;;;5034166;28;20367;-76
2022/10/29 12:22:24;;;;;;;;;;;16.50;99.90;;;;;;5016239;28;19909;-76
2022/10/29 12:25:05;;;;;;;;;;;16.60;99.90;;;;;;5031598;28;19915;-76
2022/10/29 12:27:37;;;;;;;;;;;16.70;99.90;;;;;;5033172;28;19956;-75
2022/10/29 12:30:07;;;;;;;;;;;16.70;99.90;;;;;;5033116;28;20357;-75
2022/10/29 12:32:45;;;;;;;;;;;16.70;99.90;;;;;;5032667;28;19959;-76
2022/10/29 12:35:28;;;;;;;;;;;16.80;99.90;;;;;;5032273;28;20347;-75
2022/10/29 12:38:07;;;;;;;;;;;16.80;99.90;;;;;;5032533;28;19913;-76
2022/10/29 12:40:36;;;;;;;;;;;16.80;99.90;;;;;;5032721;28;19963;-76
2022/10/29 12:43:06;;;;;;;;;;;16.80;99.90;;;;;;5032792;28;19967;-75
2022/10/29 12:45:45;;;;;;;;;;;16.80;99.90;;;;;;5109226;27;19912;-75
2022/10/29 12:48:16;;;;;;;;;;;16.80;99.90;;;;;;5110398;28;19916;-75
2022/10/29 12:50:47;;;;;;;;;;;16.70;99.90;;;;;;5109226;28;19908;-75
2022/10/29 12:53:21;;;;;;;;;;;16.60;99.90;;;;;;5109811;28;19908;-75
2022/10/29 12:55:47;;;;;;;;;;;16.60;99.90;;;;;;5109366;28;20008;-75
2022/10/29 12:58:31;;;;;;;;;;;16.60;99.90;;;;;;5109990;28;19908;-76
2022/10/29 13:00:57;;;;;;;;;;;16.60;99.90;;;;;;5109732;28;19908;-77
2022/10/29 13:03:41;;;;;;;;;;;16.50;99.90;;;;;;5109995;28;19908;-76
2022/10/29 13:06:25;;;;;;;;;;;16.60;99.90;;;;;;5109600;28;19908;-76
2022/10/29 13:08:56;;;;;;;;;;;16.50;99.90;;;;;;5108921;28;19912;-76
2022/10/29 13:11:23;;;;;;;;;;;16.50;99.90;;;;;;5109536;28;20006;-76
2022/10/29 13:13:52;;;;;;;;;;;16.40;99.90;;;;;;5109017;28;19954;-76
2022/10/29 13:16:20;;;;;;;;;;;16.40;99.90;;;;;;5109827;28;19908;-76
2022/10/29 13:18:54;;;;;;;;;;;16.50;99.90;;;;;;5109357;28;19908;-76
2022/10/29 13:21:38;;;;;;;;;;;16.50;99.90;;;;;;5109524;28;20455;-76
2022/10/29 13:24:04;;;;;;;;;;;16.50;99.90;;;;;;5109345;28;19938;-75
2022/10/29 13:26:50;;;;;;;;;;;16.50;99.90;;;;;;5108051;28;19912;-74
2022/10/29 13:29:36;;;;;;;;;;;16.60;99.90;;;;;;5108619;28;20010;-75
2022/10/29 13:32:01;;;;;;;;;;;16.60;99.90;;;;;;5108904;28;19908;-75
2022/10/29 13:34:45;;;;;;;;;;;16.70;99.90;;;;;;5109522;28;20273;-76
2022/10/29 13:37:29;;;;;;;;;;;16.70;99.90;;;;;;5109164;28;19919;-75
2022/10/29 13:40:13;;;;;;;;;;;16.70;99.90;;;;;;5108827;28;20312;-74
2022/10/29 13:42:39;;;;;;;;;;;16.80;99.90;;;;;;5108594;28;19908;-75
2022/10/29 13:45:09;;;;;;;;;;;17.00;99.90;;;;;;5108324;28;20437;-75
2022/10/29 13:47:35;;;;;;;;;;;17.10;99.90;;;;;;5108241;28;19908;-76
2022/10/29 13:50:03;;;;;;;;;;;17.30;99.90;;;;;;5108169;28;19918;-75
2022/10/29 13:52:30;;;;;;;;;;;17.40;99.90;;;;;;5109265;28;19908;-76
2022/10/29 13:54:56;;;;;;;;;;;17.50;99.90;;;;;;5107200;28;19915;-76
2022/10/29 13:57:27;;;;;;;;;;;17.70;99.90;;;;;;5095574;28;19908;-75
2022/10/29 14:00:02;;;;;;;;;;;17.80;99.90;;;;;;5094767;28;20008;-74
2022/10/29 14:02:27;;;;;;;;;;;18.00;99.90;;;;;;5095439;28;19923;-75
2022/10/29 14:04:54;;;;;;;;;;;18.00;99.90;;;;;;5095034;28;19916;-76
2022/10/29 14:07:22;;;;;;;;;;;18.00;99.90;;;;;;5094685;28;19912;-75
2022/10/29 14:09:50;;;;;;;;;;;18.00;99.90;;;;;;5095091;28;19934;-75
2022/10/29 14:12:18;;;;;;;;;;;18.10;99.90;;;;;;5094121;28;20000;-76
2022/10/29 14:14:50;;;;;;;;;;;18.10;99.90;;;;;;5093719;28;20002;-75
2022/10/29 14:17:16;;;;;;;;;;;18.10;99.90;;;;;;5094691;28;20422;-75
2022/10/29 14:19:43;;;;;;;;;;;18.10;99.90;;;;;;5095025;28;19967;-76
2022/10/29 14:22:28;;;;;;;;;;;18.10;99.90;;;;;;5094941;28;19912;-76
2022/10/29 14:24:54;;;;;;;;;;;18.10;99.90;;;;;;5093800;28;20315;-77
2022/10/29 14:27:19;;;;;;;;;;;18.00;99.90;;;;;;5094334;28;19966;-75